Terminal Aerodrome Forecast
Issued by NWS

Home | Current Version | Previous Version | Text Only | Print | Product List | Glossary On
Versions: 1 2 3 4 5 6 7 8 9 10 11 12 13
065
FTUS43 KGRR 082340
TAFLAN
TAF
KLAN 082340Z 0900/0924 27006KT P6SM BKN050
     FM090400 29008KT P6SM -SN BKN015
     FM091600 31013G22KT 5SM -SN BKN025=

USA.gov is the U.S. government's official web portal to all federal, state and local government web resources and services.